Time;durP1;ratioP1;P1;durP2;ratioP2;P2;SDS_P1;SDS_P2;PMS_P1;PMS_P2;Temp;Humidity;BMP_temperature;BMP_pressure;BME280_temperature;BME280_humidity;BME280_pressure;Samples;Min_cycle;Max_cycle;Signal;HPM_P1;HPM_P2
2022/04/17 00:01:57;;;;;;;3.15;2.40;;;6.80;99.90;;;;;;5072892;28;20229;-90
2022/04/17 00:04:26;;;;;;;2.33;2.22;;;6.80;98.50;;;;;;5073117;28;20295;-89
2022/04/17 00:06:54;;;;;;;2.70;2.15;;;6.80;98.50;;;;;;5072780;28;20284;-89
2022/04/17 00:09:23;;;;;;;2.65;2.45;;;6.70;98.50;;;;;;5073040;28;20232;-90
2022/04/17 00:11:52;;;;;;;5.70;2.10;;;6.70;98.40;;;;;;5073080;28;20308;-89
2022/04/17 00:14:21;;;;;;;8.48;2.75;;;6.60;99.30;;;;;;5073451;28;20232;-90
2022/04/17 00:16:49;;;;;;;2.40;2.20;;;6.60;98.30;;;;;;5073315;28;20201;-90
2022/04/17 00:19:18;;;;;;;2.58;2.38;;;6.60;99.90;;;;;;5072761;28;20280;-89
2022/04/17 00:21:47;;;;;;;3.00;2.70;;;6.60;99.10;;;;;;5072456;28;20225;-89
2022/04/17 00:24:15;;;;;;;1.67;1.58;;;6.60;99.30;;;;;;5072832;28;20240;-90
2022/04/17 00:26:44;;;;;;;3.13;2.88;;;6.50;99.50;;;;;;5072918;28;20300;-89
2022/04/17 00:29:14;;;;;;;2.63;2.42;;;6.50;99.00;;;;;;5073306;28;20197;-89
2022/04/17 00:31:42;;;;;;;6.85;2.88;;;6.50;99.30;;;;;;5072688;28;20259;-89
2022/04/17 00:34:11;;;;;;;3.75;2.67;;;6.40;98.60;;;;;;5072956;28;20205;-89
2022/04/17 00:36:40;;;;;;;2.83;2.60;;;6.40;99.30;;;;;;5073142;28;20293;-90
2022/04/17 00:39:08;;;;;;;2.15;2.03;;;6.40;99.60;;;;;;5072989;28;20312;-90
2022/04/17 00:41:36;;;;;;;2.58;2.38;;;6.30;98.70;;;;;;5072789;28;20264;-91
2022/04/17 00:44:11;;;;;;;3.80;2.97;;;6.30;99.00;;;;;;5072992;28;20228;-89
2022/04/17 00:46:41;;;;;;;3.15;2.40;;;6.30;99.90;;;;;;5072607;28;20209;-90
2022/04/17 00:49:10;;;;;;;2.55;2.35;;;6.20;99.30;;;;;;5072559;28;20208;-90
2022/04/17 00:51:39;;;;;;;2.60;2.40;;;6.30;99.90;;;;;;5072424;28;20254;-89
2022/04/17 00:54:12;;;;;;;3.78;2.60;;;6.20;99.90;;;;;;5072868;28;20304;-90
2022/04/17 00:56:41;;;;;;;2.35;2.25;;;6.20;99.90;;;;;;5072847;28;20205;-90
2022/04/17 00:59:10;;;;;;;2.30;2.20;;;6.20;99.90;;;;;;5072513;28;20212;-89
2022/04/17 01:01:40;;;;;;;2.53;2.33;;;6.10;99.90;;;;;;5072422;28;20312;-89
2022/04/17 01:04:09;;;;;;;2.90;2.55;;;6.10;99.90;;;;;;5072440;28;20205;-90
2022/04/17 01:06:40;;;;;;;2.05;1.95;;;6.20;99.90;;;;;;5073291;28;20299;-90
2022/04/17 01:09:09;;;;;;;2.30;2.10;;;6.10;99.90;;;;;;5076875;28;20197;-90
2022/04/17 01:11:39;;;;;;;2.95;2.50;;;6.10;99.90;;;;;;5076232;28;20316;-90
2022/04/17 01:14:12;;;;;;;2.17;2.00;;;6.00;99.90;;;;;;5076430;28;20235;-90
2022/04/17 01:16:42;;;;;;;2.28;2.08;;;6.00;99.90;;;;;;5076872;28;20249;-89
2022/04/17 01:19:14;;;;;;;2.47;2.28;;;5.90;99.90;;;;;;5076205;28;20315;-90
2022/04/17 01:21:46;;;;;;;2.00;1.90;;;5.90;99.90;;;;;;5076396;28;20288;-90
2022/04/17 01:27:03;;;;;;;2.08;1.98;;;5.90;99.90;;;;;;5076308;28;20273;-89
2022/04/17 01:29:34;;;;;;;4.47;3.28;;;5.90;99.90;;;;;;5076484;28;20205;-89
2022/04/17 01:32:04;;;;;;;2.40;2.20;;;5.80;99.90;;;;;;5075871;28;20283;-90
2022/04/17 01:34:33;;;;;;;3.63;3.13;;;5.90;99.90;;;;;;5076417;28;20268;-89
2022/04/17 01:37:03;;;;;;;3.75;2.03;;;5.80;99.90;;;;;;5075757;28;20261;-89
2022/04/17 01:39:33;;;;;;;5.75;2.47;;;5.80;99.90;;;;;;5075807;28;20316;-90
2022/04/17 01:42:01;;;;;;;2.65;2.45;;;5.80;99.90;;;;;;5075673;28;20309;-89
2022/04/17 01:44:30;;;;;;;2.63;2.40;;;5.70;99.90;;;;;;5076109;28;20295;-89
2022/04/17 01:47:01;;;;;;;3.85;2.67;;;5.70;99.90;;;;;;5077981;28;20228;-89
2022/04/17 01:49:29;;;;;;;1.98;1.88;;;5.80;99.90;;;;;;5082721;28;20288;-89
2022/04/17 01:52:00;;;;;;;2.20;2.00;;;5.70;99.90;;;;;;5082722;28;20249;-90
2022/04/17 01:54:32;;;;;;;2.50;2.30;;;5.80;99.90;;;;;;5077102;28;20276;-90
2022/04/17 01:57:01;;;;;;;2.05;1.95;;;5.80;99.90;;;;;;5077394;28;20205;-89
2022/04/17 01:59:29;;;;;;;2.63;2.42;;;5.70;99.90;;;;;;5079117;28;20239;-89
2022/04/17 02:01:58;;;;;;;2.22;2.10;;;5.80;99.90;;;;;;5079146;28;20265;-89
2022/04/17 02:04:28;;;;;;;3.65;2.33;;;5.70;99.90;;;;;;5077692;28;20201;-90
2022/04/17 02:06:56;;;;;;;2.65;2.38;;;5.70;99.90;;;;;;5075759;28;20288;-89
2022/04/17 02:09:25;;;;;;;1.88;1.77;;;5.70;99.90;;;;;;5075566;28;20292;-90
2022/04/17 02:11:55;;;;;;;2.03;1.90;;;5.70;99.90;;;;;;5075267;28;20240;-89
2022/04/17 02:14:23;;;;;;;2.53;2.33;;;5.70;99.90;;;;;;5075378;28;20221;-90
2022/04/17 02:16:52;;;;;;;3.58;3.22;;;5.70;99.90;;;;;;5075823;28;20220;-89
2022/04/17 02:19:20;;;;;;;2.67;2.47;;;5.70;99.90;;;;;;5073849;28;20232;-89
2022/04/17 02:21:49;;;;;;;2.78;2.47;;;5.60;99.90;;;;;;5075152;28;20229;-89
2022/04/17 02:24:17;;;;;;;2.80;2.60;;;5.60;99.90;;;;;;5075380;28;20300;-89
2022/04/17 02:26:45;;;;;;;2.10;2.00;;;5.60;99.90;;;;;;5075253;28;20232;-89
2022/04/17 02:29:15;;;;;;;2.20;2.00;;;5.60;99.90;;;;;;5075597;28;20292;-90
2022/04/17 02:31:43;;;;;;;4.13;2.90;;;5.60;99.90;;;;;;5074693;28;20339;-90
2022/04/17 02:34:13;;;;;;;2.05;1.95;;;5.60;99.90;;;;;;5075349;28;20284;-89
2022/04/17 02:36:41;;;;;;;2.50;2.30;;;5.50;99.90;;;;;;5074850;28;20263;-89
2022/04/17 02:39:09;;;;;;;2.92;2.42;;;5.50;99.90;;;;;;5074761;28;20236;-89
2022/04/17 02:41:38;;;;;;;2.50;2.33;;;5.40;99.90;;;;;;5074647;28;20247;-89
2022/04/17 02:44:06;;;;;;;2.78;2.38;;;5.40;99.90;;;;;;5075049;28;20239;-89
2022/04/17 02:49:21;;;;;;;3.13;2.83;;;5.30;99.90;;;;;;5074684;28;20209;-88
2022/04/17 02:51:50;;;;;;;2.05;1.95;;;5.30;99.90;;;;;;5074386;28;20249;-89
2022/04/17 02:54:18;;;;;;;2.92;2.60;;;5.30;99.90;;;;;;5074835;28;20296;-88
2022/04/17 02:56:47;;;;;;;3.47;3.17;;;5.30;99.90;;;;;;5074739;28;20228;-88
2022/04/17 02:59:15;;;;;;;2.53;2.33;;;5.30;99.90;;;;;;5074293;28;20228;-88
2022/04/17 03:07:16;;;;;;;1.95;1.85;;;5.20;99.90;;;;;;5074798;28;20201;-89
2022/04/17 03:09:45;;;;;;;2.63;2.40;;;5.20;99.90;;;;;;5074437;28;20291;-88
2022/04/17 03:12:14;;;;;;;2.45;2.25;;;5.20;99.90;;;;;;5074455;28;20255;-88
2022/04/17 03:14:46;;;;;;;2.47;2.28;;;5.10;99.90;;;;;;5074495;28;20209;-89
2022/04/17 03:17:15;;;;;;;3.53;3.05;;;5.10;99.90;;;;;;5074382;28;20209;-88
2022/04/17 03:19:44;;;;;;;3.10;2.80;;;5.10;99.90;;;;;;5074805;28;20354;-88
2022/04/17 03:22:12;;;;;;;2.53;2.13;;;5.10;99.90;;;;;;5074040;28;20304;-89
2022/04/17 03:24:41;;;;;;;3.30;2.78;;;5.10;99.90;;;;;;5074012;28;20236;-88
2022/04/17 03:27:09;;;;;;;2.58;2.38;;;5.00;99.90;;;;;;5074095;28;20225;-89
2022/04/17 03:29:37;;;;;;;2.30;2.15;;;5.00;99.90;;;;;;5073449;28;20204;-88
2022/04/17 03:32:06;;;;;;;3.47;2.17;;;5.00;99.90;;;;;;5073651;28;20311;-89
2022/04/17 03:34:36;;;;;;;2.80;2.53;;;5.00;99.90;;;;;;5074553;28;20213;-89
2022/04/17 03:37:05;;;;;;;2.35;2.13;;;5.00;99.90;;;;;;5073980;28;20238;-88
2022/04/17 03:39:33;;;;;;;2.60;2.40;;;4.90;99.90;;;;;;5073685;28;20288;-88
2022/04/17 03:42:02;;;;;;;4.35;2.33;;;4.90;99.90;;;;;;5073156;28;20308;-88
2022/04/17 03:44:30;;;;;;;2.08;1.98;;;4.90;99.90;;;;;;5073534;28;20270;-89
2022/04/17 03:46:58;;;;;;;3.67;2.90;;;4.90;99.90;;;;;;5074388;28;20256;-88
2022/04/17 03:49:27;;;;;;;2.10;2.00;;;4.80;99.90;;;;;;5073787;28;20308;-89
2022/04/17 03:51:57;;;;;;;3.40;2.78;;;4.90;99.90;;;;;;5073569;28;20316;-89
2022/04/17 03:54:25;;;;;;;2.42;2.20;;;4.80;99.90;;;;;;5073393;28;20224;-88
2022/04/17 03:56:53;;;;;;;2.17;2.08;;;4.80;99.90;;;;;;5073744;28;20236;-89
2022/04/17 03:59:22;;;;;;;2.33;2.13;;;4.80;99.90;;;;;;5073749;28;20283;-88
2022/04/17 04:01:50;;;;;;;3.70;2.58;;;4.80;99.90;;;;;;5073118;28;20282;-88
2022/04/17 04:04:19;;;;;;;2.45;2.20;;;4.80;99.90;;;;;;5073609;28;20225;-89
2022/04/17 04:06:47;;;;;;;3.22;2.83;;;4.70;99.90;;;;;;5073017;28;20269;-88
2022/04/17 04:09:17;;;;;;;5.90;2.80;;;4.70;99.90;;;;;;5073269;28;20209;-88
2022/04/17 04:11:47;;;;;;;3.20;2.22;;;4.70;99.90;;;;;;5073427;28;20292;-89
2022/04/17 04:14:15;;;;;;;2.30;2.10;;;4.80;99.90;;;;;;5073480;28;20232;-88
2022/04/17 04:16:43;;;;;;;2.80;2.60;;;4.70;99.90;;;;;;5073105;28;20243;-88
2022/04/17 04:19:13;;;;;;;2.17;2.08;;;4.80;99.90;;;;;;5072961;28;20209;-88
2022/04/17 04:21:48;;;;;;;2.67;2.10;;;4.80;99.90;;;;;;5072660;28;20253;-88
2022/04/17 04:24:19;;;;;;;2.90;2.33;;;4.80;99.90;;;;;;5073348;28;20295;-88
2022/04/17 04:28:33;;;;;;;2.70;2.50;;;4.80;99.90;;;;;;5073336;28;20205;-89
2022/04/17 04:29:38;;;;;;;2.00;1.90;;;4.80;99.90;;;;;;5073054;28;20213;-88
2022/04/17 04:32:07;;;;;;;3.08;2.85;;;4.80;99.90;;;;;;5072744;28;20236;-88
2022/04/17 04:34:36;;;;;;;4.38;3.00;;;4.90;99.90;;;;;;5073158;28;20209;-88
2022/04/17 04:37:05;;;;;;;2.03;1.92;;;4.90;99.90;;;;;;5073181;28;20244;-88
2022/04/17 04:39:35;;;;;;;3.08;2.78;;;4.90;99.90;;;;;;5072994;28;20227;-89
2022/04/17 04:42:04;;;;;;;3.50;2.85;;;4.90;99.90;;;;;;5072400;28;20241;-88
2022/04/17 04:44:33;;;;;;;3.28;2.13;;;5.00;99.90;;;;;;5073182;28;20232;-88
2022/04/17 04:47:00;;;;;;;2.72;2.53;;;5.00;99.90;;;;;;5072882;28;20205;-89
2022/04/17 04:49:31;;;;;;;2.55;2.35;;;5.00;99.90;;;;;;5072911;28;20209;-88
2022/04/17 04:52:01;;;;;;;2.80;2.05;;;5.00;99.90;;;;;;5072726;28;20229;-88
2022/04/17 04:54:30;;;;;;;3.40;3.08;;;5.10;99.90;;;;;;5072854;28;20240;-88
2022/04/17 04:57:00;;;;;;;2.72;2.53;;;5.10;99.90;;;;;;5072472;28;20300;-89
2022/04/17 04:59:29;;;;;;;2.83;2.35;;;5.10;99.90;;;;;;5072857;28;20236;-88
2022/04/17 05:01:58;;;;;;;2.88;2.42;;;5.20;99.90;;;;;;5072406;28;20252;-88
2022/04/17 05:04:29;;;;;;;2.88;2.65;;;5.20;99.90;;;;;;5073014;28;20227;-88
2022/04/17 05:06:57;;;;;;;2.90;2.70;;;5.30;99.90;;;;;;5073212;28;20303;-88
2022/04/17 05:09:26;;;;;;;2.88;2.60;;;5.30;99.90;;;;;;5072720;28;20205;-88
2022/04/17 05:11:54;;;;;;;2.65;2.45;;;5.30;99.90;;;;;;5072387;28;20240;-88
2022/04/17 05:14:25;;;;;;;2.88;2.67;;;5.30;99.90;;;;;;5072551;28;20253;-88
2022/04/17 05:16:53;;;;;;;2.72;2.53;;;5.40;99.90;;;;;;5072954;28;20291;-88
2022/04/17 05:19:24;;;;;;;5.78;3.50;;;5.40;99.90;;;;;;5072926;28;20229;-88
2022/04/17 05:21:57;;;;;;;3.65;3.35;;;5.50;99.90;;;;;;5088487;28;20221;-88
2022/04/17 05:24:26;;;;;;;2.97;2.67;;;5.50;99.90;;;;;;5091765;28;20197;-88
2022/04/17 05:26:54;;;;;;;2.22;2.13;;;5.50;99.90;;;;;;5091834;28;20212;-87
2022/04/17 05:29:24;;;;;;;3.58;3.28;;;5.50;99.90;;;;;;5074829;28;20225;-89
2022/04/17 05:31:52;;;;;;;2.72;2.45;;;5.60;99.90;;;;;;5074567;28;20319;-88
2022/04/17 05:34:21;;;;;;;2.60;2.40;;;5.60;99.90;;;;;;5080746;28;20212;-88
2022/04/17 05:36:49;;;;;;;4.45;2.90;;;5.70;99.90;;;;;;5091826;28;20213;-88
2022/04/17 05:39:18;;;;;;;2.85;2.65;;;5.70;99.90;;;;;;5089189;28;20205;-88
2022/04/17 05:41:46;;;;;;;4.38;2.65;;;5.80;99.90;;;;;;5074744;28;20252;-88
2022/04/17 05:44:16;;;;;;;2.97;2.75;;;5.80;99.90;;;;;;5072901;28;20205;-88
2022/04/17 05:46:46;;;;;;;2.75;2.55;;;5.90;99.90;;;;;;5072975;28;20288;-88
2022/04/17 05:49:14;;;;;;;2.70;2.50;;;5.90;99.90;;;;;;5073067;28;20250;-89
2022/04/17 05:51:43;;;;;;;3.00;2.70;;;5.90;99.90;;;;;;5071940;28;20308;-88
2022/04/17 05:54:11;;;;;;;2.55;2.35;;;6.00;99.90;;;;;;5075514;28;20282;-89
2022/04/17 05:56:40;;;;;;;2.42;2.22;;;6.10;99.90;;;;;;5076259;28;20291;-88
2022/04/17 05:59:08;;;;;;;2.95;2.65;;;6.10;99.90;;;;;;5076309;28;20252;-88
2022/04/17 06:01:36;;;;;;;3.83;2.78;;;6.20;99.90;;;;;;5075555;28;20225;-88
2022/04/17 06:04:06;;;;;;;3.55;2.45;;;6.20;99.90;;;;;;5075820;28;20201;-88
2022/04/17 06:06:35;;;;;;;2.60;2.35;;;6.30;99.90;;;;;;5076024;28;20232;-89
2022/04/17 06:09:03;;;;;;;3.08;2.78;;;6.40;99.90;;;;;;5075528;28;20292;-88
2022/04/17 06:11:32;;;;;;;3.67;2.97;;;6.40;99.90;;;;;;5075224;28;20237;-89
2022/04/17 06:14:00;;;;;;;2.75;2.55;;;6.50;99.90;;;;;;5075958;28;20235;-88
2022/04/17 06:16:28;;;;;;;6.20;2.78;;;6.50;99.90;;;;;;5075990;28;20201;-88
2022/04/17 06:18:57;;;;;;;2.80;2.60;;;6.60;99.90;;;;;;5075442;28;20205;-88
2022/04/17 06:21:28;;;;;;;2.97;2.47;;;6.60;99.90;;;;;;5075263;28;20252;-88
2022/04/17 06:23:56;;;;;;;2.90;2.63;;;6.60;99.90;;;;;;5075676;28;20277;-88
2022/04/17 06:26:25;;;;;;;2.53;2.33;;;6.70;99.90;;;;;;5075210;28;20269;-88
2022/04/17 06:28:53;;;;;;;3.63;2.80;;;6.80;99.90;;;;;;5075416;28;20208;-88
2022/04/17 06:31:22;;;;;;;1.92;1.83;;;6.80;99.90;;;;;;5075255;28;20233;-88
2022/04/17 06:33:50;;;;;;;3.30;2.75;;;6.90;99.90;;;;;;5074899;28;20253;-89
2022/04/17 06:36:20;;;;;;;2.53;2.35;;;6.90;99.90;;;;;;5075157;28;20205;-88
2022/04/17 06:38:50;;;;;;;2.53;2.33;;;7.00;99.90;;;;;;5075126;28;20205;-88
2022/04/17 06:41:19;;;;;;;2.35;2.15;;;7.10;99.90;;;;;;5075157;28;20297;-88
2022/04/17 06:43:50;;;;;;;2.35;2.15;;;7.20;99.90;;;;;;5074878;28;20441;-88
2022/04/17 06:46:19;;;;;;;2.70;2.30;;;7.20;99.90;;;;;;5074918;28;20266;-88
2022/04/17 06:48:47;;;;;;;2.63;2.35;;;7.30;99.90;;;;;;5074940;28;20205;-88
2022/04/17 06:51:19;;;;;;;3.08;2.45;;;7.30;99.90;;;;;;5074570;28;20229;-88
2022/04/17 06:53:47;;;;;;;3.28;1.92;;;7.30;99.90;;;;;;5075330;28;20205;-88
2022/04/17 06:56:18;;;;;;;7.22;2.55;;;7.40;99.90;;;;;;5074853;28;20251;-88
2022/04/17 06:58:47;;;;;;;1.85;1.65;;;7.40;99.90;;;;;;5074813;28;20201;-88
2022/04/17 07:01:15;;;;;;;2.42;2.22;;;7.50;99.60;;;;;;5074479;28;20244;-89
2022/04/17 07:03:43;;;;;;;5.20;3.28;;;7.50;99.90;;;;;;5074444;28;20217;-88
2022/04/17 07:06:12;;;;;;;1.75;1.65;;;7.60;99.40;;;;;;5073980;28;20209;-88
2022/04/17 07:08:40;;;;;;;2.40;2.20;;;7.70;99.10;;;;;;5074663;28;20227;-88
2022/04/17 07:11:09;;;;;;;2.42;2.17;;;7.70;98.20;;;;;;5074168;28;20313;-89
2022/04/17 07:13:39;;;;;;;3.45;1.92;;;7.70;98.10;;;;;;5074386;28;20197;-88
2022/04/17 07:16:08;;;;;;;2.00;1.90;;;7.80;97.60;;;;;;5074348;28;20268;-88
2022/04/17 07:18:37;;;;;;;2.47;2.28;;;7.90;97.90;;;;;;5074358;28;20235;-88
2022/04/17 07:21:05;;;;;;;3.00;2.28;;;8.00;99.10;;;;;;5073867;28;20275;-88
2022/04/17 07:23:33;;;;;;;1.90;1.80;;;8.10;98.10;;;;;;5074261;28;20267;-88
2022/04/17 07:26:02;;;;;;;3.35;1.58;;;8.30;96.70;;;;;;5073988;28;20281;-88
2022/04/17 07:28:30;;;;;;;1.98;1.88;;;8.40;96.00;;;;;;5074015;28;20228;-89
2022/04/17 07:31:00;;;;;;;1.88;1.77;;;8.50;96.40;;;;;;5073861;28;20315;-89
2022/04/17 07:33:28;;;;;;;1.90;1.80;;;8.70;96.90;;;;;;5074046;28;20217;-89
2022/04/17 07:35:57;;;;;;;3.42;2.00;;;8.80;96.40;;;;;;5074295;28;20258;-89
2022/04/17 07:38:25;;;;;;;4.57;2.08;;;8.90;96.40;;;;;;5073951;28;20291;-89
2022/04/17 07:40:53;;;;;;;1.52;1.42;;;9.00;95.10;;;;;;5073493;28;20271;-89
2022/04/17 07:43:22;;;;;;;1.73;1.63;;;9.10;95.30;;;;;;5073709;28;20221;-89
2022/04/17 07:45:52;;;;;;;2.40;1.90;;;9.20;96.10;;;;;;5073757;28;20293;-89
2022/04/17 07:48:24;;;;;;;1.70;1.60;;;9.30;94.80;;;;;;5073944;28;20196;-89
2022/04/17 07:50:54;;;;;;;4.75;2.17;;;9.50;95.00;;;;;;5073607;28;20285;-89
2022/04/17 07:53:22;;;;;;;2.53;2.17;;;9.60;93.00;;;;;;5073570;28;20444;-88
2022/04/17 07:55:51;;;;;;;2.53;2.28;;;9.80;92.60;;;;;;5073664;28;20236;-89
2022/04/17 07:58:27;;;;;;;2.00;1.80;;;10.10;92.40;;;;;;5073936;28;20214;-88
2022/04/17 08:00:59;;;;;;;1.75;1.65;;;10.30;92.90;;;;;;5073212;28;20225;-89
2022/04/17 08:03:46;;;;;;;1.50;1.40;;;10.50;90.80;;;;;;5073315;28;20235;-88
2022/04/17 08:06:20;;;;;;;2.63;1.98;;;10.60;90.90;;;;;;5073231;28;20288;-89
2022/04/17 08:08:51;;;;;;;1.90;1.80;;;11.20;88.50;;;;;;5073489;28;20212;-89
2022/04/17 08:11:19;;;;;;;1.67;1.58;;;12.30;87.20;;;;;;5073413;28;20252;-89
2022/04/17 08:13:47;;;;;;;2.03;1.92;;;13.80;81.80;;;;;;5073493;28;20239;-90
2022/04/17 08:16:17;;;;;;;2.58;1.90;;;14.80;78.10;;;;;;5072291;28;20236;-89
2022/04/17 08:18:47;;;;;;;2.45;2.15;;;15.10;75.30;;;;;;5073100;28;20197;-89
2022/04/17 08:21:17;;;;;;;1.63;1.52;;;15.40;73.70;;;;;;5072875;28;20225;-89
2022/04/17 08:23:45;;;;;;;1.55;1.45;;;16.70;71.70;;;;;;5073005;28;20308;-88
2022/04/17 08:26:13;;;;;;;2.33;2.10;;;17.80;68.20;;;;;;5073092;28;20240;-88
2022/04/17 08:28:42;;;;;;;4.20;2.28;;;18.70;65.50;;;;;;5073160;28;20292;-88
2022/04/17 08:31:11;;;;;;;1.90;1.77;;;19.60;59.30;;;;;;5072538;28;20241;-88
2022/04/17 08:33:39;;;;;;;2.15;2.03;;;18.80;57.30;;;;;;5072967;28;20212;-89
2022/04/17 08:36:12;;;;;;;1.60;1.50;;;17.90;54.80;;;;;;5073363;28;20201;-89
2022/04/17 08:38:42;;;;;;;1.77;1.58;;;18.00;56.50;;;;;;5072754;28;20263;-88
2022/04/17 08:41:12;;;;;;;1.85;1.75;;;18.60;54.40;;;;;;5072926;28;20237;-88
2022/04/17 08:43:43;;;;;;;1.50;1.40;;;18.90;51.90;;;;;;5072591;28;20282;-89
2022/04/17 08:46:12;;;;;;;1.30;1.25;;;19.60;54.20;;;;;;5072881;28;20232;-88
2022/04/17 08:48:40;;;;;;;2.00;1.80;;;20.10;51.20;;;;;;5072316;28;20205;-88
2022/04/17 08:51:10;;;;;;;1.33;1.23;;;20.00;51.10;;;;;;5072325;28;20312;-89
2022/04/17 08:53:41;;;;;;;1.48;1.38;;;20.20;51.70;;;;;;5072556;28;20244;-88
2022/04/17 08:56:10;;;;;;;1.58;1.48;;;21.00;50.90;;;;;;5072737;28;20288;-88
2022/04/17 08:58:38;;;;;;;1.73;1.63;;;21.20;46.50;;;;;;5072172;28;20235;-88
2022/04/17 09:01:07;;;;;;;3.60;1.63;;;21.30;45.80;;;;;;5072256;28;20225;-89
2022/04/17 09:03:35;;;;;;;2.38;1.70;;;21.20;45.80;;;;;;5072398;28;20232;-89
2022/04/17 09:06:04;;;;;;;2.58;1.73;;;21.20;45.50;;;;;;5072656;28;20268;-88
2022/04/17 09:09:00;;;;;;;1.55;1.45;;;21.10;43.80;;;;;;5072641;28;20219;-88
2022/04/17 09:11:29;;;;;;;1.50;1.40;;;20.90;46.70;;;;;;5072653;28;20256;-88
2022/04/17 09:13:59;;;;;;;2.08;1.95;;;21.30;44.40;;;;;;5072600;28;20221;-88
2022/04/17 09:16:29;;;;;;;1.70;1.60;;;21.30;47.90;;;;;;5072204;28;20264;-88
2022/04/17 09:18:58;;;;;;;1.65;1.55;;;21.70;44.10;;;;;;5072617;28;20227;-88
2022/04/17 09:21:32;;;;;;;1.58;1.48;;;21.70;41.50;;;;;;5071930;28;20224;-88
2022/04/17 09:24:19;;;;;;;2.58;1.60;;;21.70;43.40;;;;;;5072110;28;20220;-88
2022/04/17 09:26:55;;;;;;;1.77;1.58;;;22.10;45.20;;;;;;5072431;28;20209;-88
2022/04/17 09:29:25;;;;;;;2.60;1.92;;;22.20;45.10;;;;;;5075625;28;20236;-89
2022/04/17 09:32:00;;;;;;;2.65;1.80;;;21.40;44.10;;;;;;5075621;28;20319;-88
2022/04/17 09:34:30;;;;;;;1.60;1.50;;;21.20;47.40;;;;;;5075773;28;20221;-88
2022/04/17 09:36:59;;;;;;;1.25;1.23;;;21.40;42.60;;;;;;5075642;28;20201;-88
2022/04/17 09:39:34;;;;;;;1.85;1.70;;;21.00;43.60;;;;;;5075781;28;20232;-88
2022/04/17 09:42:03;;;;;;;2.05;1.60;;;20.80;45.20;;;;;;5075917;28;20247;-88
2022/04/17 09:44:39;;;;;;;1.45;1.38;;;21.10;45.70;;;;;;5076107;28;20241;-88
2022/04/17 09:47:12;;;;;;;2.47;1.60;;;21.10;44.20;;;;;;5075678;28;20276;-88
2022/04/17 09:49:54;;;;;;;1.67;1.55;;;21.20;43.50;;;;;;5076156;28;20304;-88
2022/04/17 09:52:23;;;;;;;1.52;1.42;;;21.00;43.90;;;;;;5076782;28;20248;-88
2022/04/17 09:54:53;;;;;;;1.55;1.50;;;21.30;44.60;;;;;;5081452;28;20233;-88
2022/04/17 09:57:29;;;;;;;2.17;1.98;;;21.60;44.40;;;;;;5080262;28;20247;-88
2022/04/17 09:59:58;;;;;;;2.08;1.75;;;21.70;45.20;;;;;;5076650;28;20205;-89
2022/04/17 10:02:26;;;;;;;1.20;1.20;;;22.00;42.30;;;;;;5080172;28;20251;-88
2022/04/17 10:04:55;;;;;;;1.83;1.73;;;21.90;41.70;;;;;;5081787;28;20221;-88
2022/04/17 10:07:26;;;;;;;2.97;1.30;;;21.60;42.80;;;;;;5078924;28;20208;-88
2022/04/17 10:09:56;;;;;;;3.83;1.83;;;21.30;42.40;;;;;;5075965;28;20224;-88
2022/04/17 10:12:26;;;;;;;2.03;1.90;;;21.30;45.70;;;;;;5075643;28;20225;-88
2022/04/17 10:14:55;;;;;;;2.05;1.83;;;21.40;42.70;;;;;;5075612;28;20270;-88
2022/04/17 10:17:24;;;;;;;2.88;1.50;;;21.40;43.70;;;;;;5075281;28;20256;-88
2022/04/17 10:19:53;;;;;;;2.28;1.70;;;21.30;41.30;;;;;;5075340;28;20244;-88
2022/04/17 10:22:25;;;;;;;3.05;2.10;;;21.30;42.40;;;;;;5075106;28;20256;-89
2022/04/17 10:24:55;;;;;;;1.80;1.67;;;21.50;43.90;;;;;;5075466;28;20236;-88
2022/04/17 10:27:26;;;;;;;1.90;1.80;;;21.50;41.90;;;;;;5075313;28;20228;-88
2022/04/17 10:29:59;;;;;;;2.65;1.60;;;21.40;45.20;;;;;;5075499;28;20251;-88
2022/04/17 10:33:19;;;;;;;1.92;1.80;;;21.40;42.80;;;;;;5074846;28;20252;-88
2022/04/17 10:36:03;;;;;;;2.20;2.00;;;21.40;43.60;;;;;;5074899;28;20292;-88
2022/04/17 10:38:42;;;;;;;1.92;1.80;;;21.60;41.80;;;;;;5075057;28;20209;-88
2022/04/17 10:41:13;;;;;;;1.60;1.50;;;21.40;43.20;;;;;;5073962;28;20307;-88
2022/04/17 10:43:57;;;;;;;2.17;1.98;;;21.20;42.90;;;;;;5075121;28;20292;-88
2022/04/17 10:46:27;;;;;;;2.08;1.90;;;21.30;44.10;;;;;;5074708;28;20213;-89
2022/04/17 10:48:57;;;;;;;1.98;1.80;;;21.10;41.90;;;;;;5074686;28;20209;-89
2022/04/17 10:51:27;;;;;;;2.10;1.90;;;21.20;42.80;;;;;;5074690;28;20229;-89
2022/04/17 10:54:04;;;;;;;1.83;1.70;;;21.20;42.20;;;;;;5074664;28;20197;-89
2022/04/17 10:56:36;;;;;;;1.88;1.77;;;21.50;43.30;;;;;;5074461;28;20264;-89
2022/04/17 10:59:06;;;;;;;1.70;1.60;;;21.60;43.90;;;;;;5075110;28;20231;-89
2022/04/17 11:02:24;;;;;;;1.98;1.80;;;21.50;42.90;;;;;;5074258;28;20233;-88
2022/04/17 11:04:53;;;;;;;2.13;1.92;;;21.70;44.60;;;;;;5074518;28;20213;-89
2022/04/17 11:07:26;;;;;;;1.58;1.48;;;21.70;43.50;;;;;;5074588;28;20255;-88
2022/04/17 11:10:23;;;;;;;2.08;1.77;;;21.60;41.80;;;;;;5074390;28;20295;-88
2022/04/17 11:12:55;;;;;;;1.70;1.60;;;21.30;42.90;;;;;;5074391;28;20209;-88
2022/04/17 11:15:29;;;;;;;1.92;1.80;;;21.20;42.20;;;;;;5074134;28;20207;-88
2022/04/17 11:18:02;;;;;;;1.10;1.10;;;21.10;41.30;;;;;;5074619;28;20212;-88
2022/04/17 11:20:31;;;;;;;1.70;1.60;;;21.10;41.70;;;;;;5074032;28;20298;-89
2022/04/17 11:23:00;;;;;;;1.90;1.80;;;21.10;42.70;;;;;;5073883;28;20296;-88
2022/04/17 11:25:29;;;;;;;1.83;1.73;;;21.40;41.60;;;;;;5073706;28;20296;-88
2022/04/17 11:28:02;;;;;;;1.60;1.50;;;21.40;40.30;;;;;;5073568;28;20265;-89
2022/04/17 11:30:54;;;;;;;2.00;1.63;;;21.20;39.90;;;;;;5073804;28;20229;-88
2022/04/17 11:33:23;;;;;;;1.42;1.38;;;20.90;34.90;;;;;;5073973;28;20213;-87
2022/04/17 11:35:52;;;;;;;2.10;1.73;;;20.70;37.20;;;;;;5073476;28;20289;-88
2022/04/17 11:38:20;;;;;;;1.80;1.70;;;20.80;38.70;;;;;;5073862;28;20264;-88
2022/04/17 11:40:49;;;;;;;1.33;1.23;;;21.00;39.40;;;;;;5073501;28;20271;-88
2022/04/17 11:43:21;;;;;;;1.80;1.70;;;21.20;39.70;;;;;;5074293;28;20289;-88
2022/04/17 11:45:49;;;;;;;2.10;1.65;;;21.00;40.50;;;;;;5073316;28;20240;-88
2022/04/17 11:48:19;;;;;;;1.80;1.60;;;21.00;40.50;;;;;;5072959;28;20208;-88
2022/04/17 11:50:53;;;;;;;1.60;1.50;;;21.10;39.50;;;;;;5073051;28;20267;-88
2022/04/17 11:53:22;;;;;;;1.75;1.63;;;21.10;39.10;;;;;;5073097;28;20284;-88
2022/04/17 11:55:51;;;;;;;2.20;1.77;;;21.10;40.20;;;;;;5073717;28;20205;-88
2022/04/17 11:58:26;;;;;;;3.05;1.60;;;20.80;38.30;;;;;;5073012;28;20280;-88
2022/04/17 12:00:58;;;;;;;3.55;1.90;;;20.70;38.60;;;;;;5072822;28;20303;-88
2022/04/17 12:03:35;;;;;;;1.60;1.50;;;20.80;39.10;;;;;;5073008;28;20273;-88
2022/04/17 12:06:04;;;;;;;1.88;1.77;;;20.80;40.30;;;;;;5072923;28;20224;-88
2022/04/17 12:08:33;;;;;;;2.00;1.90;;;21.00;39.30;;;;;;5072943;28;20213;-88
2022/04/17 12:11:05;;;;;;;1.60;1.50;;;21.00;39.80;;;;;;5072815;28;20228;-88
2022/04/17 12:13:35;;;;;;;1.90;1.80;;;21.00;39.10;;;;;;5073312;28;20295;-88
2022/04/17 12:16:06;;;;;;;2.80;1.75;;;21.00;40.00;;;;;;5073267;28;20209;-88
2022/04/17 12:18:35;;;;;;;2.35;1.92;;;21.00;38.90;;;;;;5072991;28;20197;-88
2022/04/17 12:21:05;;;;;;;2.95;2.10;;;21.10;39.20;;;;;;5072648;28;20248;-88
2022/04/17 12:23:34;;;;;;;2.92;1.98;;;21.20;37.80;;;;;;5072622;28;20268;-88
2022/04/17 12:26:05;;;;;;;1.83;1.70;;;21.00;39.20;;;;;;5072977;28;20289;-87
2022/04/17 12:28:35;;;;;;;3.10;1.70;;;21.10;40.80;;;;;;5072945;28;20288;-88
2022/04/17 12:31:04;;;;;;;1.95;1.83;;;21.10;39.40;;;;;;5072429;28;20316;-88
2022/04/17 12:33:32;;;;;;;1.65;1.55;;;21.20;39.60;;;;;;5073070;28;20209;-87
2022/04/17 12:36:05;;;;;;;1.67;1.58;;;21.10;39.90;;;;;;5072758;28;20257;-87
2022/04/17 12:38:34;;;;;;;1.83;1.73;;;21.00;40.00;;;;;;5072791;28;20293;-88
2022/04/17 12:41:02;;;;;;;1.65;1.55;;;20.70;36.40;;;;;;5072266;28;20240;-88
2022/04/17 12:43:31;;;;;;;2.13;1.92;;;20.60;40.80;;;;;;5072861;28;20291;-88
2022/04/17 12:46:04;;;;;;;2.47;2.25;;;20.50;41.00;;;;;;5072440;28;20240;-88
2022/04/17 12:48:34;;;;;;;1.80;1.70;;;20.60;41.20;;;;;;5072537;28;20216;-88
2022/04/17 12:51:04;;;;;;;1.70;1.60;;;20.70;39.20;;;;;;5072596;28;20247;-88
2022/04/17 12:53:39;;;;;;;1.77;1.67;;;20.60;39.90;;;;;;5072584;28;20258;-88
2022/04/17 12:56:08;;;;;;;1.90;1.80;;;20.40;40.20;;;;;;5072315;28;20224;-88
2022/04/17 12:58:54;;;;;;;1.95;1.85;;;20.20;39.40;;;;;;5072210;28;20218;-88
2022/04/17 13:01:26;;;;;;;2.47;2.25;;;20.10;40.40;;;;;;5072486;28;20229;-88
2022/04/17 13:04:16;;;;;;;2.30;2.10;;;20.20;40.40;;;;;;5075709;28;20217;-87
2022/04/17 13:06:45;;;;;;;2.00;1.80;;;20.20;38.50;;;;;;5076386;28;20228;-87
2022/04/17 13:09:18;;;;;;;2.78;2.30;;;19.80;37.00;;;;;;5076455;28;20243;-87
2022/04/17 13:11:51;;;;;;;2.08;1.88;;;19.70;40.00;;;;;;5076299;28;20330;-87
2022/04/17 13:14:20;;;;;;;2.58;1.98;;;19.70;41.30;;;;;;5076674;28;20215;-87
2022/04/17 13:16:54;;;;;;;1.80;1.70;;;19.40;40.20;;;;;;5076970;28;20224;-88
2022/04/17 13:19:24;;;;;;;1.77;1.67;;;19.10;39.10;;;;;;5076416;28;20262;-88
2022/04/17 13:21:54;;;;;;;2.00;1.88;;;19.00;41.00;;;;;;5076051;28;20221;-88